Orbital elements of FENGYUN 3B
| Launched | 3 November 2010 |
| Flight ended | – |
| Launch site | Taiyuan Space Center, PRC |
| Owner | People's Republic of China |
| NORAD ID | 37214 |
| Alternative names |
FY-3B |
| Date fetched |
Epoch osculation |
Inc. [°] |
Ecc. | RA asc node [hr] |
Arg Peri. [°] |
Mean anom [°] |
Mean motion [rev/day] |
Abs. mag |
| Date fetched |
Epoch osculation |
Inc. [°] |
Ecc. | RA asc node [hr] |
Arg Peri. [°] |
Mean anom [°] |
Mean motion [rev/day] |
Abs. mag |
| 2026 May 08 17:57 | 2026 May 08 06:59:07 | 98.9647 | 0.00212 | 11.6087 | 301.5302 | 191.7306 | 14.14832 | 5.500 |
| 2026 May 07 17:58 | 2026 May 07 07:13:33 | 98.9647 | 0.00212 | 11.5424 | 304.5708 | 191.7306 | 14.14832 | 5.500 |
| 2026 May 06 17:57 | 2026 May 06 12:25:35 | 98.9649 | 0.00212 | 11.4899 | 306.9785 | 191.7306 | 14.14832 | 5.500 |
| 2026 May 05 17:57 | 2026 May 05 12:48:29 | 98.9651 | 0.00213 | 11.4240 | 309.8035 | 191.7306 | 14.14832 | 5.500 |
| 2026 May 04 17:57 | 2026 May 04 13:02:41 | 98.9654 | 0.00213 | 11.3577 | 312.6137 | 191.7306 | 14.14832 | 5.500 |
| 2026 May 03 17:57 | 2026 May 03 13:23:59 | 98.9658 | 0.00213 | 11.2917 | 315.4336 | 191.7306 | 14.14832 | 5.500 |
| 2026 May 02 17:57 | 2026 May 02 13:37:36 | 98.9661 | 0.00214 | 11.2253 | 318.2961 | 191.7306 | 14.14832 | 5.500 |
| 2026 May 01 17:56 | 2026 May 01 13:53:25 | 98.9664 | 0.00214 | 11.1591 | 321.2244 | 191.7306 | 14.14832 | 5.500 |
| 2026 Apr 30 17:56 | 2026 Apr 30 14:05:05 | 98.9667 | 0.00215 | 11.0927 | 324.1966 | 191.7306 | 14.14832 | 5.500 |
| 2026 Apr 29 17:57 | 2026 Apr 29 12:23:44 | 98.9671 | 0.00215 | 11.0210 | 327.4314 | 191.7306 | 14.14832 | 5.500 |
| 2026 Apr 28 17:56 | 2026 Apr 28 12:38:05 | 98.9673 | 0.00216 | 10.9547 | 330.3193 | 191.7306 | 14.14832 | 5.500 |
| 2026 Apr 27 17:58 | 2026 Apr 27 12:52:21 | 98.9674 | 0.00216 | 10.8884 | 333.1050 | 191.7306 | 14.14832 | 5.500 |
| 2026 Apr 26 17:58 | 2026 Apr 26 13:22:17 | 98.9674 | 0.00217 | 10.8228 | 335.8658 | 191.7306 | 14.14832 | 5.500 |
| 2026 Apr 25 17:58 | 2026 Apr 25 13:35:53 | 98.9672 | 0.00217 | 10.7564 | 338.6684 | 191.7306 | 14.14832 | 5.500 |
| 2026 Apr 24 17:59 | 2026 Apr 24 13:49:36 | 98.9671 | 0.00217 | 10.6901 | 341.5800 | 191.7306 | 14.14832 | 5.500 |
| 2026 Apr 23 17:57 | 2026 Apr 23 07:09:51 | 98.9670 | 0.00218 | 10.6045 | 345.3010 | 191.7306 | 14.14832 | 5.500 |
| 2026 Apr 22 17:57 | 2026 Apr 22 07:12:16 | 98.9671 | 0.00219 | 10.5376 | 348.2527 | 191.7306 | 14.14832 | 5.500 |
| 2026 Apr 21 17:57 | 2026 Apr 21 12:44:58 | 98.9673 | 0.00219 | 10.4860 | 350.4509 | 191.7306 | 14.14832 | 5.500 |
| 2026 Apr 20 17:57 | 2026 Apr 20 12:50:37 | 98.9676 | 0.00220 | 10.4193 | 353.2316 | 191.7306 | 14.14832 | 5.500 |
| 2026 Apr 19 17:58 | 2026 Apr 19 13:23:36 | 98.9679 | 0.00220 | 10.3539 | 355.9300 | 191.7306 | 14.14832 | 5.500 |
| 2026 Apr 18 17:56 | 2026 Apr 18 08:00:51 | 98.9685 | 0.00220 | 10.2718 | 359.3727 | 191.7306 | 14.14832 | 5.500 |
| 2026 Apr 16 17:57 | 2026 Apr 16 07:07:49 | 98.9692 | 0.00222 | 10.1354 | 5.2453 | 191.7306 | 14.14832 | 5.500 |
| 2026 Apr 14 17:57 | 2026 Apr 14 12:43:13 | 98.9698 | 0.00223 | 10.0170 | 10.2303 | 191.7306 | 14.14832 | 5.500 |
| 2026 Apr 13 17:57 | 2026 Apr 13 07:31:27 | 98.9700 | 0.00223 | 9.9355 | 13.5396 | 191.7306 | 14.14832 | 5.500 |
| 2026 Apr 12 17:57 | 2026 Apr 12 13:18:53 | 98.9701 | 0.00224 | 9.8847 | 15.6265 | 191.7306 | 14.14832 | 5.500 |
| 2026 Apr 11 17:57 | 2026 Apr 11 13:32:28 | 98.9700 | 0.00224 | 9.8183 | 18.3689 | 191.7306 | 14.14832 | 5.500 |